Bloody Springs, Mississippi
Current Conditions -  °F | °C
As of 5:53 AM on Monday 26 Jan 2015 (Local Time) from KTUP Reporting Station
Overcast Overcast  
Wind Chill: 34°   Ceiling: 1900
Heat Index: 40°   Visibility: 10mi
Dew Point: 32°   Wind: 9mph
Humidity: 73%   Direction: 10°N
Pressure: 30.02"   Gusts: NA
Location:  34.5141°N, 88.2677°W
Report Text: KTUP 261153Z 01008KT 10SM OVC019 04/00 A3002 RMK AO2 SLP164 70013 T00440000 10067 20044 53024
Loading
Personal Weather Stations






























Interactive Weather Map New forecast layout! Learn more

10-Day Weather Forecast

Advertisements
Track Severe Weather on mobile